createdAt,value
2018-07-30T00:01:24.487Z,90.00
2018-07-30T00:03:52.691Z,90.10
2018-07-30T00:06:20.964Z,90.20
2018-07-30T00:08:49.179Z,90.20
2018-07-30T00:11:18.094Z,90.50
2018-07-30T00:13:46.475Z,90.60
2018-07-30T00:16:15.582Z,90.80
2018-07-30T00:18:44.206Z,90.60
2018-07-30T00:21:13.082Z,90.90
2018-07-30T00:23:41.282Z,90.70
2018-07-30T00:26:09.973Z,90.90
2018-07-30T00:28:38.196Z,91.00
2018-07-30T00:31:06.790Z,91.00
2018-07-30T00:33:35.418Z,91.20
2018-07-30T00:36:03.639Z,91.30
2018-07-30T00:38:31.900Z,91.50
2018-07-30T00:41:00.099Z,91.20
2018-07-30T00:43:28.938Z,91.40
2018-07-30T00:45:57.918Z,91.40
2018-07-30T00:48:26.124Z,91.60
2018-07-30T00:50:54.334Z,91.70
2018-07-30T00:53:22.946Z,91.80
2018-07-30T00:55:51.175Z,92.00
2018-07-30T00:58:20.002Z,92.30
2018-07-30T01:00:48.313Z,92.40
2018-07-30T01:03:16.631Z,92.60
2018-07-30T01:05:44.854Z,92.80
2018-07-30T01:08:13.095Z,92.80
2018-07-30T01:10:41.367Z,92.80
2018-07-30T01:13:10.661Z,92.60
2018-07-30T01:15:39.160Z,92.70
2018-07-30T01:18:07.863Z,92.80
2018-07-30T01:20:36.419Z,92.90
2018-07-30T01:23:04.630Z,93.10
2018-07-30T01:25:32.828Z,93.30
2018-07-30T01:28:01.994Z,93.20
2018-07-30T01:30:30.483Z,93.30
2018-07-30T01:32:59.269Z,93.50
2018-07-30T01:35:27.480Z,93.70
2018-07-30T01:37:55.686Z,93.70
2018-07-30T01:40:24.620Z,94.00
2018-07-30T01:42:52.860Z,94.00
2018-07-30T01:45:21.749Z,94.10
2018-07-30T01:47:49.983Z,94.20
2018-07-30T01:50:18.943Z,94.20
2018-07-30T01:52:47.526Z,94.30
2018-07-30T01:55:15.754Z,94.40
2018-07-30T01:57:43.951Z,94.30
2018-07-30T02:00:12.205Z,94.20
2018-07-30T02:02:42.802Z,94.60
2018-07-30T02:05:11.212Z,94.70
2018-07-30T02:07:40.247Z,94.80
2018-07-30T02:10:09.750Z,94.80
2018-07-30T02:12:39.122Z,94.80
2018-07-30T02:15:08.215Z,95.00
2018-07-30T02:17:36.747Z,95.00
2018-07-30T02:20:05.577Z,95.00
2018-07-30T02:22:34.318Z,95.10
2018-07-30T02:25:02.559Z,95.30
2018-07-30T02:27:31.456Z,95.40
2018-07-30T02:29:59.678Z,95.50
2018-07-30T02:32:28.731Z,95.50
2018-07-30T02:34:56.918Z,95.80
2018-07-30T02:37:25.168Z,95.70
2018-07-30T02:39:53.795Z,95.80
2018-07-30T02:42:22.024Z,96.00
2018-07-30T02:44:50.260Z,96.00
2018-07-30T02:47:18.509Z,96.00
2018-07-30T02:49:46.713Z,96.10
2018-07-30T02:52:16.090Z,96.10
2018-07-30T02:54:44.344Z,96.20
2018-07-30T02:57:12.538Z,96.20
2018-07-30T02:59:40.775Z,96.30
2018-07-30T03:02:08.987Z,96.60
2018-07-30T03:04:37.246Z,96.70
2018-07-30T03:07:05.482Z,96.70
2018-07-30T03:09:33.702Z,96.80
2018-07-30T03:12:01.959Z,96.90
2018-07-30T03:14:30.909Z,96.90
2018-07-30T03:16:59.567Z,97.00
2018-07-30T03:19:27.801Z,97.30
2018-07-30T03:21:56.027Z,97.50
2018-07-30T03:24:24.398Z,97.50
2018-07-30T03:26:53.108Z,97.40
2018-07-30T03:29:21.323Z,97.30
2018-07-30T03:31:49.868Z,97.40
2018-07-30T03:34:18.522Z,97.50
2018-07-30T03:36:47.511Z,97.50
2018-07-30T03:39:15.711Z,97.80
2018-07-30T03:41:43.939Z,97.80
2018-07-30T03:44:12.175Z,97.90
2018-07-30T03:46:40.410Z,98.10
2018-07-30T03:49:08.686Z,98.20
2018-07-30T03:51:36.938Z,98.10
2018-07-30T03:54:05.770Z,98.10
2018-07-30T03:56:33.997Z,98.20
2018-07-30T03:59:02.235Z,98.40
2018-07-30T04:01:30.498Z,98.40
2018-07-30T04:03:59.343Z,98.60
2018-07-30T04:06:27.582Z,98.50
2018-07-30T04:08:55.775Z,98.40
2018-07-30T04:11:24.031Z,98.40
2018-07-30T04:13:52.712Z,98.30
2018-07-30T04:16:21.347Z,98.10
2018-07-30T04:18:49.992Z,98.10
2018-07-30T04:21:18.230Z,98.40
2018-07-30T04:23:46.486Z,98.10
2018-07-30T04:26:14.767Z,98.10
2018-07-30T04:28:43.466Z,98.00
2018-07-30T04:31:12.335Z,98.20
2018-07-30T04:33:40.843Z,98.10
2018-07-30T04:36:09.278Z,98.10
2018-07-30T04:38:37.506Z,98.10
2018-07-30T04:41:05.718Z,98.10
2018-07-30T04:43:34.029Z,98.10
2018-07-30T04:46:02.255Z,98.10
2018-07-30T04:48:30.532Z,98.00
2018-07-30T04:50:58.864Z,98.00
2018-07-30T04:53:27.906Z,98.20
2018-07-30T04:55:56.283Z,98.10
2018-07-30T04:58:24.913Z,98.20
2018-07-30T05:00:53.118Z,97.90
2018-07-30T05:03:21.374Z,98.20
2018-07-30T05:05:50.007Z,97.60
2018-07-30T05:08:18.225Z,97.80
2018-07-30T05:10:46.430Z,97.70
2018-07-30T05:13:15.554Z,97.80
2018-07-30T05:15:44.263Z,97.60
2018-07-30T05:18:12.822Z,97.50
2018-07-30T05:20:41.592Z,97.00
2018-07-30T05:23:09.798Z,96.80
2018-07-30T05:25:38.090Z,96.40
2018-07-30T05:28:06.796Z,96.80
2018-07-30T05:30:35.498Z,96.50
2018-07-30T05:33:04.174Z,96.40
2018-07-30T05:35:32.398Z,96.30
2018-07-30T05:38:00.603Z,96.40
2018-07-30T05:40:28.851Z,96.00
2018-07-30T05:42:57.090Z,95.50
2018-07-30T05:45:25.386Z,95.40
2018-07-30T05:47:57.142Z,95.00
2018-07-30T05:50:25.344Z,95.00
2018-07-30T05:52:54.282Z,94.70
2018-07-30T05:55:22.505Z,94.20
2018-07-30T05:57:50.708Z,93.90
2018-07-30T06:00:19.445Z,93.30
2018-07-30T06:02:47.654Z,93.50
2018-07-30T06:05:15.878Z,93.20
2018-07-30T06:07:44.098Z,92.70
2018-07-30T06:10:12.340Z,92.70
2018-07-30T06:12:41.174Z,92.00
2018-07-30T06:15:10.341Z,91.70
2018-07-30T06:17:38.863Z,91.00
2018-07-30T06:20:08.927Z,91.30
2018-07-30T06:22:37.256Z,90.00
2018-07-30T06:25:06.074Z,89.60
2018-07-30T06:27:36.539Z,89.00
2018-07-30T06:30:05.618Z,88.50
2018-07-30T06:32:34.258Z,86.20
2018-07-30T06:35:02.456Z,87.80
2018-07-30T06:37:30.732Z,87.10
2018-07-30T06:39:59.105Z,85.00
2018-07-30T06:42:27.306Z,84.70
2018-07-30T06:44:55.500Z,83.90
2018-07-30T06:47:23.710Z,82.90
2018-07-30T06:49:51.916Z,81.00
2018-07-30T06:52:20.819Z,79.90
2018-07-30T06:54:49.035Z,79.00
2018-07-30T06:57:17.486Z,75.30
2018-07-30T06:59:46.374Z,74.60
2018-07-30T07:02:14.562Z,69.50
2018-07-30T07:04:42.771Z,68.70
2018-07-30T07:07:11.011Z,66.80
2018-07-30T07:09:39.208Z,62.60
2018-07-30T07:12:07.459Z,61.70
2018-07-30T07:14:36.283Z,59.90
2018-07-30T07:17:05.108Z,60.00
2018-07-30T07:19:33.331Z,57.50
2018-07-30T07:22:01.580Z,56.20
2018-07-30T07:24:29.778Z,55.50
2018-07-30T07:26:59.056Z,54.00
2018-07-30T07:29:27.832Z,51.40
2018-07-30T07:31:56.235Z,51.60
2018-07-30T07:34:24.867Z,49.80
2018-07-30T07:36:53.694Z,48.30
2018-07-30T07:39:21.887Z,47.90
2018-07-30T07:41:50.127Z,45.40
2018-07-30T07:44:18.355Z,44.20
2018-07-30T07:46:46.579Z,43.70
2018-07-30T07:49:14.869Z,44.00
2018-07-30T07:51:43.124Z,42.50
2018-07-30T07:54:11.833Z,41.40
2018-07-30T07:56:40.039Z,41.50
2018-07-30T07:59:08.243Z,40.20
2018-07-30T08:01:36.470Z,39.30
2018-07-30T08:04:04.880Z,40.00
2018-07-30T08:06:33.097Z,38.30
2018-07-30T08:09:01.291Z,38.10
2018-07-30T08:11:29.518Z,38.10
2018-07-30T08:13:58.029Z,39.00
2018-07-30T08:16:26.694Z,36.50
2018-07-30T08:18:55.398Z,35.10
2018-07-30T08:21:24.507Z,35.20
2018-07-30T08:23:52.713Z,33.30
2018-07-30T08:26:21.588Z,34.20
2018-07-30T08:28:50.283Z,33.70
2018-07-30T08:31:18.458Z,32.30
2018-07-30T08:33:46.879Z,31.30
2018-07-30T08:36:15.075Z,30.90
2018-07-30T08:38:43.271Z,29.60
2018-07-30T08:41:11.491Z,29.90
2018-07-30T08:43:39.671Z,29.40
2018-07-30T08:46:07.978Z,29.50
2018-07-30T08:48:36.310Z,28.90
2018-07-30T08:51:04.515Z,28.90
2018-07-30T08:53:33.215Z,28.00
2018-07-30T08:56:01.406Z,28.10
2018-07-30T08:58:29.610Z,28.20
2018-07-30T09:01:04.509Z,27.80
2018-07-30T09:03:32.713Z,28.40
2018-07-30T09:06:00.904Z,27.70
2018-07-30T09:08:29.122Z,27.60
2018-07-30T09:10:57.351Z,25.20
2018-07-30T09:13:25.971Z,25.90
2018-07-30T09:15:54.582Z,26.20
2018-07-30T09:18:23.706Z,24.80
2018-07-30T09:20:51.854Z,25.30
2018-07-30T09:23:20.051Z,24.70
2018-07-30T09:25:48.254Z,24.80
2018-07-30T09:28:28.671Z,24.40
2018-07-30T09:30:57.588Z,23.50
2018-07-30T09:33:26.558Z,24.50
2018-07-30T09:35:54.785Z,24.40
2018-07-30T09:38:23.015Z,23.90
2018-07-30T09:40:51.271Z,23.80
2018-07-30T09:43:19.475Z,24.60
2018-07-30T09:45:47.793Z,23.90
2018-07-30T09:48:17.030Z,24.00
2018-07-30T09:50:45.223Z,24.80
2018-07-30T09:53:13.722Z,23.60
2018-07-30T09:55:42.151Z,23.80
2018-07-30T09:58:10.363Z,22.20
2018-07-30T10:00:44.775Z,23.20
2018-07-30T10:03:13.594Z,23.70
2018-07-30T10:05:41.774Z,23.40
2018-07-30T10:08:09.995Z,22.30
2018-07-30T10:10:38.231Z,23.20
2018-07-30T10:13:07.214Z,23.60
2018-07-30T10:15:35.662Z,22.20
2018-07-30T10:18:04.126Z,21.60
2018-07-30T10:20:32.286Z,22.70
2018-07-30T10:23:00.510Z,21.60
2018-07-30T10:25:28.726Z,21.40
2018-07-30T10:27:56.930Z,20.40
2018-07-30T10:30:25.712Z,21.00
2018-07-30T10:32:54.692Z,20.30
2018-07-30T10:35:23.103Z,20.60
2018-07-30T10:37:51.324Z,20.60
2018-07-30T10:40:19.650Z,20.50
2018-07-30T10:42:47.827Z,20.60
2018-07-30T10:45:16.147Z,20.00
2018-07-30T10:47:44.522Z,19.90
2018-07-30T10:50:13.417Z,20.70
2018-07-30T10:52:43.015Z,20.40
2018-07-30T10:55:11.964Z,21.10
2018-07-30T10:57:40.235Z,21.00
2018-07-30T11:00:08.593Z,20.30
2018-07-30T11:02:36.995Z,20.70
2018-07-30T11:05:05.716Z,20.20
2018-07-30T11:07:33.991Z,19.80
2018-07-30T11:10:02.211Z,19.20
2018-07-30T11:12:36.066Z,18.70
2018-07-30T11:15:05.311Z,19.50
2018-07-30T11:17:34.308Z,17.80
2018-07-30T11:20:02.543Z,18.20
2018-07-30T11:22:31.063Z,18.50
2018-07-30T11:24:59.274Z,19.50
2018-07-30T11:27:27.486Z,18.10
2018-07-30T11:29:56.570Z,18.00
2018-07-30T11:32:25.186Z,18.40
2018-07-30T11:34:53.394Z,18.50
2018-07-30T11:37:21.600Z,18.90
2018-07-30T11:39:49.841Z,17.60
2018-07-30T11:42:24.910Z,18.30
2018-07-30T11:44:53.310Z,17.70
2018-07-30T11:47:21.539Z,17.90
2018-07-30T11:49:49.779Z,18.40
2018-07-30T11:52:18.321Z,18.80
2018-07-30T11:54:46.547Z,18.30
2018-07-30T11:57:14.852Z,18.00
2018-07-30T11:59:43.071Z,19.00
2018-07-30T12:02:11.304Z,19.30
2018-07-30T12:04:39.575Z,19.60
2018-07-30T12:07:07.799Z,18.80
2018-07-30T12:09:36.045Z,18.50
2018-07-30T12:12:04.272Z,18.40
2018-07-30T12:14:32.877Z,18.80
2018-07-30T12:17:01.723Z,18.40
2018-07-30T12:19:29.956Z,18.80
2018-07-30T12:21:58.141Z,18.50
2018-07-30T12:24:26.387Z,18.90
2018-07-30T12:26:55.481Z,19.10
2018-07-30T12:29:25.003Z,18.10
2018-07-30T12:31:53.646Z,18.00
2018-07-30T12:34:22.094Z,18.20
2018-07-30T12:36:50.291Z,18.00
2018-07-30T12:39:18.490Z,18.20
2018-07-30T12:41:46.749Z,18.50
2018-07-30T12:44:14.940Z,18.90
2018-07-30T12:46:43.186Z,18.40
2018-07-30T12:49:11.471Z,18.20
2018-07-30T12:51:39.666Z,18.60
2018-07-30T12:54:08.613Z,19.00
2018-07-30T12:56:36.839Z,19.60
2018-07-30T12:59:05.050Z,20.40
2018-07-30T13:01:33.266Z,21.30
2018-07-30T13:04:01.483Z,21.60
2018-07-30T13:06:29.741Z,22.20
2018-07-30T13:08:57.981Z,23.20
2018-07-30T13:11:26.194Z,23.30
2018-07-30T13:13:54.679Z,24.30
2018-07-30T13:16:23.343Z,24.60
2018-07-30T13:18:52.521Z,25.00
2018-07-30T13:21:20.756Z,26.30
2018-07-30T13:23:49.217Z,26.50
2018-07-30T13:26:18.093Z,27.10
2018-07-30T13:28:46.275Z,26.20
2018-07-30T13:31:15.128Z,25.80
2018-07-30T13:33:43.796Z,27.30
2018-07-30T13:36:12.002Z,27.70
2018-07-30T13:38:40.230Z,26.80
2018-07-30T13:41:08.442Z,28.30
2018-07-30T13:43:36.691Z,28.30
2018-07-30T13:46:04.984Z,27.90
2018-07-30T13:48:33.191Z,27.10
2018-07-30T13:51:01.461Z,27.30
2018-07-30T13:53:30.645Z,27.80
2018-07-30T13:55:58.854Z,27.90
2018-07-30T13:58:27.055Z,28.80
2018-07-30T14:00:55.271Z,29.20
2018-07-30T14:03:23.474Z,29.10
2018-07-30T14:05:51.718Z,28.30
2018-07-30T14:08:19.934Z,28.50
2018-07-30T14:10:48.134Z,29.10
2018-07-30T14:13:17.087Z,29.40
2018-07-30T14:15:45.847Z,28.20
2018-07-30T14:18:14.652Z,29.50
2018-07-30T14:20:43.113Z,28.90
2018-07-30T14:23:11.298Z,29.40
2018-07-30T14:25:39.493Z,28.70
2018-07-30T14:28:07.706Z,28.70
2018-07-30T14:30:36.620Z,29.50
2018-07-30T14:33:05.412Z,28.90
2018-07-30T14:35:33.704Z,29.70
2018-07-30T14:38:01.867Z,29.50
2018-07-30T14:40:30.092Z,28.00
2018-07-30T14:42:58.286Z,28.50
2018-07-30T14:45:26.666Z,29.50
2018-07-30T14:47:54.880Z,29.70
2018-07-30T14:50:23.123Z,29.00
2018-07-30T14:52:51.738Z,29.20
2018-07-30T14:55:19.979Z,30.30
2018-07-30T14:57:48.174Z,30.00
2018-07-30T15:00:16.379Z,29.90
2018-07-30T15:02:44.575Z,29.80
2018-07-30T15:05:12.835Z,29.10
2018-07-30T15:07:41.064Z,29.60
2018-07-30T15:10:09.838Z,30.30
2018-07-30T15:12:38.713Z,30.00
2018-07-30T15:15:07.430Z,29.40
2018-07-30T15:17:36.291Z,29.40
2018-07-30T15:20:05.719Z,30.10
2018-07-30T15:22:33.926Z,31.80
2018-07-30T15:25:02.144Z,31.70
2018-07-30T15:27:30.513Z,31.00
2018-07-30T15:29:58.746Z,32.70
2018-07-30T15:32:28.022Z,31.50
2018-07-30T15:34:56.393Z,31.90
2018-07-30T15:37:24.595Z,32.50
2018-07-30T15:39:53.798Z,30.50
2018-07-30T15:42:21.995Z,32.40
2018-07-30T15:44:50.186Z,31.70
2018-07-30T15:47:18.571Z,32.60
2018-07-30T15:49:46.776Z,33.20
2018-07-30T15:52:16.714Z,30.50
2018-07-30T15:54:44.973Z,33.20
2018-07-30T15:57:13.976Z,33.00
2018-07-30T15:59:42.158Z,33.30
2018-07-30T16:02:10.351Z,33.30
2018-07-30T16:04:38.590Z,32.60
2018-07-30T16:07:06.776Z,32.40
2018-07-30T16:09:35.039Z,33.50
2018-07-30T16:12:03.270Z,34.50
2018-07-30T16:15:02.579Z,34.40
2018-07-30T16:17:31.212Z,33.00
2018-07-30T16:19:59.425Z,33.10
2018-07-30T16:22:27.618Z,33.10
2018-07-30T16:24:55.868Z,31.90
2018-07-30T16:27:24.107Z,33.30
2018-07-30T16:29:52.418Z,34.20
2018-07-30T16:32:21.296Z,34.70
2018-07-30T16:34:49.499Z,34.90
2018-07-30T16:37:17.700Z,34.10
2018-07-30T16:39:45.953Z,34.70
2018-07-30T16:42:14.226Z,34.90
2018-07-30T16:44:43.119Z,34.80
2018-07-30T16:47:11.414Z,32.70
2018-07-30T16:49:39.563Z,34.20
2018-07-30T16:52:14.226Z,34.20
2018-07-30T16:54:47.842Z,35.10
2018-07-30T16:57:16.935Z,34.70
2018-07-30T16:59:45.163Z,35.30
2018-07-30T17:02:13.394Z,35.80
2018-07-30T17:04:41.772Z,32.90
2018-07-30T17:07:10.233Z,34.10
2018-07-30T17:09:38.464Z,33.50
2018-07-30T17:12:06.723Z,34.60
2018-07-30T17:14:35.438Z,34.40
2018-07-30T17:17:03.869Z,34.40
2018-07-30T17:19:32.094Z,34.90
2018-07-30T17:22:00.314Z,34.90
2018-07-30T17:24:28.562Z,34.00
2018-07-30T17:26:56.811Z,34.90
2018-07-30T17:29:25.082Z,33.50
2018-07-30T17:31:53.759Z,34.00
2018-07-30T17:34:22.230Z,34.30
2018-07-30T17:36:57.381Z,34.10
2018-07-30T17:39:25.770Z,33.00
2018-07-30T17:41:53.972Z,32.80
2018-07-30T17:44:22.222Z,34.50
2018-07-30T17:46:50.463Z,34.50
2018-07-30T17:49:18.759Z,33.80
2018-07-30T17:51:47.015Z,33.60
2018-07-30T17:54:15.369Z,33.10
2018-07-30T17:56:44.007Z,34.30
2018-07-30T17:59:12.609Z,34.00
2018-07-30T18:01:40.863Z,34.30
2018-07-30T18:04:10.076Z,33.40
2018-07-30T18:06:38.446Z,34.80
2018-07-30T18:09:08.313Z,33.80
2018-07-30T18:11:36.597Z,34.30
2018-07-30T18:14:05.088Z,35.40
2018-07-30T18:16:33.536Z,35.00
2018-07-30T18:19:02.252Z,35.60
2018-07-30T18:21:30.475Z,35.10
2018-07-30T18:23:58.749Z,36.40
2018-07-30T18:26:27.003Z,35.50
2018-07-30T18:28:55.294Z,35.50
2018-07-30T18:31:23.909Z,36.60
2018-07-30T18:33:52.503Z,37.30
2018-07-30T18:36:20.726Z,37.30
2018-07-30T18:38:48.934Z,37.60
2018-07-30T18:41:17.335Z,37.10
2018-07-30T18:43:45.548Z,37.10
2018-07-30T18:46:13.836Z,37.50
2018-07-30T18:48:42.098Z,38.40
2018-07-30T18:51:10.313Z,38.20
2018-07-30T18:53:44.683Z,38.40
2018-07-30T18:56:13.311Z,38.40
2018-07-30T18:58:41.752Z,38.70
2018-07-30T19:01:09.962Z,39.60
2018-07-30T19:03:38.260Z,40.30
2018-07-30T19:06:06.887Z,39.60
2018-07-30T19:08:35.145Z,40.20
2018-07-30T19:11:03.437Z,39.60
2018-07-30T19:13:32.093Z,38.60
2018-07-30T19:16:00.809Z,38.80
2018-07-30T19:18:29.215Z,39.60
2018-07-30T19:20:57.451Z,39.50
2018-07-30T19:23:25.655Z,40.60
2018-07-30T19:25:54.036Z,40.90
2018-07-30T19:28:22.537Z,42.00
2018-07-30T19:30:50.802Z,42.00
2018-07-30T19:33:19.432Z,41.70
2018-07-30T19:35:47.661Z,42.20
2018-07-30T19:38:15.890Z,41.90
2018-07-30T19:40:44.152Z,43.00
2018-07-30T19:43:12.380Z,43.70
2018-07-30T19:45:40.728Z,42.80
2018-07-30T19:48:09.513Z,43.30
2018-07-30T19:50:37.728Z,43.20
2018-07-30T19:53:06.347Z,43.30
2018-07-30T19:55:34.747Z,44.10
2018-07-30T19:58:03.543Z,44.50
2018-07-30T20:00:31.563Z,46.00
2018-07-30T20:02:59.797Z,46.40
2018-07-30T20:05:28.024Z,46.90
2018-07-30T20:07:56.257Z,47.90
2018-07-30T20:10:24.540Z,48.60
2018-07-30T20:12:53.118Z,48.30
2018-07-30T20:15:21.806Z,48.40
2018-07-30T20:17:50.431Z,48.30
2018-07-30T20:20:18.673Z,48.30
2018-07-30T20:22:46.877Z,48.20
2018-07-30T20:25:15.463Z,48.50
2018-07-30T20:27:44.151Z,48.70
2018-07-30T20:30:12.411Z,49.00
2018-07-30T20:32:41.021Z,49.60
2018-07-30T20:35:09.307Z,49.50
2018-07-30T20:37:37.563Z,49.80
2018-07-30T20:40:06.299Z,50.30
2018-07-30T20:42:34.541Z,50.50
2018-07-30T20:45:02.831Z,51.20
2018-07-30T20:47:31.102Z,51.50
2018-07-30T20:49:59.343Z,52.40
2018-07-30T20:52:28.122Z,53.20
2018-07-30T20:54:56.563Z,53.60
2018-07-30T20:57:25.075Z,54.20
2018-07-30T20:59:53.294Z,54.70
2018-07-30T21:02:21.511Z,55.20
2018-07-30T21:04:49.790Z,55.40
2018-07-30T21:07:18.043Z,56.00
2018-07-30T21:09:46.370Z,57.10
2018-07-30T21:12:14.624Z,57.80
2018-07-30T21:14:43.311Z,58.30
2018-07-30T21:17:11.948Z,58.50
2018-07-30T21:19:40.431Z,59.20
2018-07-30T21:22:08.734Z,59.70
2018-07-30T21:24:37.269Z,60.10
2018-07-30T21:27:05.951Z,60.30
2018-07-30T21:29:34.593Z,61.20
2018-07-30T21:32:06.052Z,62.10
2018-07-30T21:34:34.592Z,62.80
2018-07-30T21:37:02.820Z,63.70
2018-07-30T21:39:31.151Z,64.30
2018-07-30T21:41:59.347Z,64.60
2018-07-30T21:44:27.506Z,65.20
2018-07-30T21:46:55.774Z,65.90
2018-07-30T21:49:24.151Z,66.60
2018-07-30T21:51:52.968Z,67.00
2018-07-30T21:54:21.530Z,67.70
2018-07-30T21:56:50.259Z,68.90
2018-07-30T21:59:19.479Z,69.00
2018-07-30T22:01:47.703Z,69.70
2018-07-30T22:04:15.915Z,70.10
2018-07-30T22:06:44.171Z,70.20
2018-07-30T22:09:18.813Z,70.70
2018-07-30T22:11:47.038Z,71.30
2018-07-30T22:14:16.165Z,71.80
2018-07-30T22:19:18.309Z,73.70
2018-07-30T22:21:46.544Z,73.50
2018-07-30T22:24:15.307Z,74.40
2018-07-30T22:26:43.569Z,75.10
2018-07-30T22:29:12.248Z,75.70
2018-07-30T22:31:40.702Z,75.70
2018-07-30T22:34:09.342Z,76.40
2018-07-30T22:36:37.603Z,76.80
2018-07-30T22:39:08.596Z,77.10
2018-07-30T22:41:37.061Z,77.10
2018-07-30T22:44:05.575Z,77.60
2018-07-30T22:46:34.059Z,77.90
2018-07-30T22:49:02.663Z,78.90
2018-07-30T22:51:30.933Z,78.50
2018-07-30T22:53:59.644Z,79.00
2018-07-30T22:56:28.063Z,79.50
2018-07-30T22:58:56.687Z,79.40
2018-07-30T23:01:24.962Z,79.30
2018-07-30T23:03:53.213Z,80.30
2018-07-30T23:08:49.437Z,81.60
2018-07-30T23:11:18.130Z,81.50
2018-07-30T23:13:46.959Z,81.90
2018-07-30T23:16:15.741Z,82.90
2018-07-30T23:18:44.187Z,83.80
2018-07-30T23:21:12.666Z,83.80
2018-07-30T23:23:40.859Z,84.20
2018-07-30T23:26:09.094Z,84.90
2018-07-30T23:28:38.007Z,85.70
2018-07-30T23:31:06.590Z,85.00
2018-07-30T23:33:36.519Z,85.10
2018-07-30T23:36:06.271Z,85.50
2018-07-30T23:38:34.516Z,85.70
2018-07-30T23:41:02.718Z,86.50
2018-07-30T23:43:30.968Z,87.10
2018-07-30T23:45:59.267Z,87.70
2018-07-30T23:48:27.519Z,87.60
2018-07-30T23:50:55.783Z,88.10
2018-07-30T23:53:24.457Z,88.30
2018-07-30T23:55:53.218Z,88.70
2018-07-30T23:58:21.826Z,89.40
